Collista, Kentucky
Current Conditions -  °F | °C
As of 7:55 PM on Monday 26 Jan 2015 (Local Time) from KSJS Reporting Station
Overcast Overcast  
Wind Chill: 27°   Ceiling: 1100
Heat Index: 27°   Visibility: 10mi
Dew Point: 24°   Wind: 3mph
Humidity: 90%   Direction: 290°WNW
Pressure: 29.92"   Gusts: NA
Location:  37.7639°N, 82.7875°W
Report Text: KSJS 270055Z AUTO 29003KT 10SM OVC011 M03/M04 A2992 RMK AO2 T10301045
Loading
Personal Weather Stations






























Interactive Weather Map New forecast layout! Learn more

10-Day Weather Forecast

Advertisements
Track Severe Weather on mobile